Time;durP1;ratioP1;P1;durP2;ratioP2;P2;SDS_P1;SDS_P2;PMS_P1;PMS_P2;Temp;Humidity;BMP_temperature;BMP_pressure;BME280_temperature;BME280_humidity;BME280_pressure;Samples;Min_cycle;Max_cycle;Signal;HPM_P1;HPM_P2
2022/08/16 00:01:05;;;;;;;8.03;7.33;;;20.60;99.90;;;;;;5054465;28;20461;-80
2022/08/16 00:03:32;;;;;;;7.77;6.13;;;20.50;99.90;;;;;;5056643;28;20440;-81
2022/08/16 00:05:58;;;;;;;8.27;6.77;;;20.50;99.90;;;;;;5059153;28;20441;-81
2022/08/16 00:08:25;;;;;;;8.20;7.03;;;20.50;99.90;;;;;;5056003;28;20441;-82
2022/08/16 00:10:52;;;;;;;7.53;6.53;;;20.40;99.90;;;;;;5057027;28;20536;-81
2022/08/16 00:13:19;;;;;;;6.67;6.00;;;20.40;99.90;;;;;;5055389;28;20472;-81
2022/08/16 00:15:49;;;;;;;7.77;6.57;;;20.40;99.90;;;;;;5050670;28;20437;-82
2022/08/16 00:18:17;;;;;;;7.80;5.63;;;20.30;99.90;;;;;;5050591;28;20522;-82
2022/08/16 00:20:50;;;;;;;7.03;5.77;;;20.30;99.90;;;;;;5055593;28;20469;-84
2022/08/16 00:23:17;;;;;;;8.23;6.40;;;20.30;99.90;;;;;;5064520;28;20432;-80
2022/08/16 00:25:44;;;;;;;9.97;7.17;;;20.20;99.90;;;;;;5052002;28;20437;-82
2022/08/16 00:28:11;;;;;;;7.43;6.60;;;20.20;99.90;;;;;;5053595;28;20503;-81
2022/08/16 00:30:38;;;;;;;9.27;8.07;;;20.10;99.90;;;;;;5058833;28;20449;-81
2022/08/16 00:33:07;;;;;;;9.60;7.23;;;20.10;99.90;;;;;;5056876;28;20470;-82
2022/08/16 00:35:35;;;;;;;9.53;7.90;;;20.20;99.90;;;;;;5060671;28;20480;-81
2022/08/16 00:38:03;;;;;;;10.27;8.13;;;20.20;99.90;;;;;;5057980;28;21083;-82
2022/08/16 00:40:33;;;;;;;9.60;7.47;;;20.20;99.90;;;;;;5056137;28;20457;-81
2022/08/16 00:43:00;;;;;;;10.50;8.53;;;20.30;99.90;;;;;;5056367;28;20433;-80
2022/08/16 00:45:33;;;;;;;10.60;8.33;;;20.30;99.90;;;;;;5061989;28;20441;-81
2022/08/16 00:48:02;;;;;;;9.17;8.30;;;20.20;99.90;;;;;;5060008;28;20441;-82
2022/08/16 00:50:34;;;;;;;10.13;8.50;;;20.30;99.90;;;;;;5056731;28;20499;-82
2022/08/16 00:53:00;;;;;;;10.73;9.37;;;20.30;99.90;;;;;;5055332;28;20488;-82
2022/08/16 00:55:27;;;;;;;8.90;7.80;;;20.30;99.90;;;;;;5057057;28;20468;-81
2022/08/16 00:57:57;;;;;;;9.90;8.90;;;20.20;99.90;;;;;;5059985;28;20447;-81
2022/08/16 01:00:27;;;;;;;9.00;7.90;;;20.20;99.90;;;;;;5070923;28;20463;-79
2022/08/16 01:02:54;;;;;;;10.10;8.33;;;20.10;99.90;;;;;;5055798;28;20465;-79
2022/08/16 01:05:22;;;;;;;9.90;8.43;;;20.10;99.90;;;;;;5057101;28;20438;-82
2022/08/16 01:07:50;;;;;;;9.90;9.00;;;20.10;99.90;;;;;;5063112;28;20930;-82
2022/08/16 01:10:17;;;;;;;9.60;8.70;;;20.00;99.90;;;;;;5052659;28;20473;-82
2022/08/16 01:12:44;;;;;;;9.13;8.23;;;20.00;99.90;;;;;;5049130;28;20474;-81
2022/08/16 01:15:12;;;;;;;10.67;7.87;;;20.00;99.90;;;;;;5055763;28;20440;-81
2022/08/16 01:17:41;;;;;;;7.63;6.93;;;20.00;99.90;;;;;;5054522;28;20925;-81
2022/08/16 01:20:11;;;;;;;8.10;7.30;;;20.00;99.90;;;;;;5059089;28;20468;-82
2022/08/16 01:22:44;;;;;;;9.33;6.37;;;19.90;99.90;;;;;;5062148;28;20504;-81
2022/08/16 01:25:16;;;;;;;7.93;6.70;;;19.80;99.90;;;;;;5058293;28;20441;-81
2022/08/16 01:27:46;;;;;;;8.07;7.30;;;19.70;99.90;;;;;;5063244;28;20464;-81
2022/08/16 01:30:15;;;;;;;7.77;6.90;;;19.70;99.90;;;;;;5063781;28;20465;-80
2022/08/16 01:32:42;;;;;;;8.93;8.03;;;19.70;99.90;;;;;;5061450;28;20508;-79
2022/08/16 01:35:14;;;;;;;8.63;7.47;;;19.60;99.90;;;;;;5059528;28;20445;-80
2022/08/16 01:37:43;;;;;;;9.17;7.87;;;19.70;99.90;;;;;;5061286;28;20524;-81
2022/08/16 01:40:13;;;;;;;9.43;8.53;;;19.60;99.90;;;;;;5064498;28;20461;-80
2022/08/16 01:42:40;;;;;;;8.80;8.00;;;19.60;99.90;;;;;;5057593;28;20513;-80
2022/08/16 01:45:07;;;;;;;9.73;8.50;;;19.60;99.90;;;;;;5057508;28;20426;-79
2022/08/16 01:47:36;;;;;;;10.60;7.63;;;19.50;99.90;;;;;;5064486;28;20413;-80
2022/08/16 01:50:05;;;;;;;9.87;7.93;;;19.50;99.90;;;;;;5069922;28;20456;-80
2022/08/16 01:52:33;;;;;;;8.50;7.70;;;19.50;99.90;;;;;;5072895;28;20457;-80
2022/08/16 01:55:00;;;;;;;8.87;7.87;;;19.50;99.90;;;;;;5067625;28;20508;-81
2022/08/16 01:57:29;;;;;;;11.40;8.80;;;19.50;99.90;;;;;;5066327;28;20437;-81
2022/08/16 01:59:56;;;;;;;11.77;8.93;;;19.50;99.90;;;;;;5060734;28;20449;-80
2022/08/16 02:02:24;;;;;;;8.87;7.80;;;19.50;99.90;;;;;;5049659;28;20434;-81
2022/08/16 02:04:50;;;;;;;8.00;6.97;;;19.50;99.90;;;;;;5055478;28;20815;-81
2022/08/16 02:07:18;;;;;;;9.40;7.60;;;19.50;99.90;;;;;;5063180;28;22223;-79
2022/08/16 02:09:45;;;;;;;9.13;8.27;;;19.50;99.90;;;;;;5066384;28;20560;-79
2022/08/16 02:12:12;;;;;;;8.60;7.70;;;19.40;99.90;;;;;;5060063;28;20499;-81
2022/08/16 02:14:40;;;;;;;9.50;8.50;;;19.50;99.90;;;;;;5058152;28;20440;-82
2022/08/16 02:17:10;;;;;;;12.30;8.30;;;19.40;99.90;;;;;;5053152;28;20816;-81
2022/08/16 02:19:41;;;;;;;9.53;8.47;;;19.40;99.90;;;;;;5055206;28;20462;-81
2022/08/16 02:22:10;;;;;;;8.00;7.30;;;19.40;99.90;;;;;;5055023;28;20508;-82
2022/08/16 02:24:38;;;;;;;8.80;7.90;;;19.40;99.90;;;;;;5056094;28;20441;-81
2022/08/16 02:27:05;;;;;;;9.87;8.87;;;19.40;99.90;;;;;;5053091;28;20465;-82
2022/08/16 02:29:32;;;;;;;9.83;8.90;;;19.40;99.90;;;;;;5049924;28;20473;-81
2022/08/16 02:32:00;;;;;;;7.90;7.20;;;19.50;99.90;;;;;;5057469;28;20433;-81
2022/08/16 02:34:27;;;;;;;7.83;7.03;;;19.50;99.90;;;;;;5056857;28;20438;-82
2022/08/16 02:36:54;;;;;;;9.33;8.30;;;19.60;99.90;;;;;;5056125;28;20444;-82
2022/08/16 02:39:20;;;;;;;8.73;7.50;;;19.60;99.90;;;;;;5054810;28;20442;-82
2022/08/16 02:41:49;;;;;;;7.00;6.40;;;19.60;99.90;;;;;;5056324;28;20488;-81
2022/08/16 02:44:16;;;;;;;9.50;8.57;;;19.60;99.90;;;;;;5057032;28;20540;-81
2022/08/16 02:46:43;;;;;;;8.67;7.60;;;19.60;99.90;;;;;;5056499;28;20433;-80
2022/08/16 02:49:11;;;;;;;10.30;7.93;;;19.60;99.90;;;;;;5060683;28;20739;-81
2022/08/16 02:51:39;;;;;;;8.97;8.03;;;19.60;99.90;;;;;;5056418;28;20441;-80
2022/08/16 02:54:07;;;;;;;8.70;7.87;;;19.50;99.90;;;;;;5052488;28;20598;-81
2022/08/16 02:56:34;;;;;;;9.37;7.77;;;19.50;99.90;;;;;;5051893;28;20438;-81
2022/08/16 02:59:01;;;;;;;8.30;7.03;;;19.40;99.90;;;;;;5056638;28;20459;-80
2022/08/16 03:01:31;;;;;;;9.20;8.30;;;19.40;99.90;;;;;;5055763;28;20467;-81
2022/08/16 03:03:59;;;;;;;10.10;8.77;;;19.40;99.90;;;;;;5055228;28;20464;-81
2022/08/16 03:06:27;;;;;;;9.17;8.17;;;19.30;99.90;;;;;;5055777;28;20437;-82
2022/08/16 03:08:55;;;;;;;9.90;7.33;;;19.30;99.90;;;;;;5055235;28;20472;-82
2022/08/16 03:11:22;;;;;;;9.10;8.20;;;19.30;99.90;;;;;;5053555;28;20886;-82
2022/08/16 03:13:51;;;;;;;8.80;8.00;;;19.30;99.90;;;;;;5053731;28;20477;-82
2022/08/16 03:16:19;;;;;;;10.77;9.03;;;19.30;99.90;;;;;;5049698;28;20466;-82
2022/08/16 03:18:46;;;;;;;10.87;9.37;;;19.30;99.90;;;;;;5045940;28;20948;-82
2022/08/16 03:21:13;;;;;;;9.87;8.87;;;19.30;99.90;;;;;;5045557;28;20465;-82
2022/08/16 03:23:41;;;;;;;12.10;10.23;;;19.30;99.90;;;;;;5062743;28;20429;-80
2022/08/16 03:26:08;;;;;;;10.57;9.53;;;19.30;99.90;;;;;;5065350;28;20437;-81
2022/08/16 03:28:36;;;;;;;9.53;8.43;;;19.30;99.90;;;;;;5054626;28;20441;-81
2022/08/16 03:31:03;;;;;;;12.00;9.53;;;19.30;99.90;;;;;;5056330;28;20518;-82
2022/08/16 03:33:29;;;;;;;10.60;9.07;;;19.30;99.90;;;;;;5060411;28;20474;-81
2022/08/16 03:35:58;;;;;;;10.37;9.00;;;19.30;99.90;;;;;;5058478;28;20432;-82
2022/08/16 03:38:26;;;;;;;10.43;9.10;;;19.30;99.90;;;;;;5059622;28;20810;-82
2022/08/16 03:40:55;;;;;;;11.63;8.60;;;19.20;99.90;;;;;;5067037;28;20437;-79
2022/08/16 03:43:23;;;;;;;11.20;9.47;;;19.20;99.90;;;;;;5071331;28;20425;-81
2022/08/16 03:45:51;;;;;;;9.43;8.53;;;19.20;99.90;;;;;;5058555;28;20475;-80
2022/08/16 03:48:18;;;;;;;10.20;8.90;;;19.10;99.90;;;;;;5054387;28;20993;-80
2022/08/16 03:50:45;;;;;;;11.50;10.30;;;19.10;99.90;;;;;;5059610;28;20457;-81
2022/08/16 03:53:12;;;;;;;13.40;9.60;;;19.10;99.90;;;;;;5061404;28;20518;-81
2022/08/16 03:55:39;;;;;;;10.97;9.77;;;19.00;99.90;;;;;;5060471;28;20441;-80
2022/08/16 03:58:07;;;;;;;11.97;10.10;;;19.00;99.90;;;;;;5060756;28;20497;-81
2022/08/16 04:00:34;;;;;;;10.93;9.17;;;19.00;99.90;;;;;;5057187;28;20449;-81
2022/08/16 04:03:06;;;;;;;11.13;10.03;;;18.90;99.90;;;;;;5050295;28;20461;-80
2022/08/16 04:05:33;;;;;;;10.37;9.17;;;18.90;99.90;;;;;;5047398;28;20437;-80
2022/08/16 04:08:00;;;;;;;12.10;9.90;;;18.80;99.90;;;;;;5047814;28;20548;-82
2022/08/16 04:10:26;;;;;;;9.47;8.53;;;18.80;99.90;;;;;;5048918;28;20462;-81
2022/08/16 04:12:53;;;;;;;11.80;10.47;;;18.80;99.90;;;;;;5048552;28;20477;-82
2022/08/16 04:15:21;;;;;;;9.40;7.90;;;18.70;99.90;;;;;;5048477;28;20441;-81
2022/08/16 04:17:48;;;;;;;9.30;8.40;;;18.70;99.90;;;;;;5063485;28;20463;-80
2022/08/16 04:20:15;;;;;;;10.13;8.80;;;18.70;99.90;;;;;;5068044;28;20460;-82
2022/08/16 04:22:43;;;;;;;10.20;9.20;;;18.70;99.90;;;;;;5064583;28;20445;-80
2022/08/16 04:25:11;;;;;;;9.07;8.13;;;18.70;99.90;;;;;;5065930;28;20985;-81
2022/08/16 04:27:38;;;;;;;11.47;9.00;;;18.70;99.90;;;;;;5065282;28;20490;-81
2022/08/16 04:30:08;;;;;;;10.70;9.70;;;18.80;99.90;;;;;;5065551;28;20476;-81
2022/08/16 04:32:36;;;;;;;10.03;9.03;;;18.80;99.90;;;;;;5067423;28;20558;-82
2022/08/16 04:35:04;;;;;;;10.50;9.40;;;18.80;99.90;;;;;;5067555;28;20433;-81
2022/08/16 04:37:30;;;;;;;10.97;8.73;;;18.90;99.90;;;;;;5067409;28;20770;-82
2022/08/16 04:39:57;;;;;;;9.90;8.90;;;18.80;99.90;;;;;;5067320;28;20449;-81
2022/08/16 04:42:24;;;;;;;13.27;9.73;;;18.90;99.90;;;;;;5067851;28;20433;-81
2022/08/16 04:44:51;;;;;;;9.33;8.53;;;18.90;99.90;;;;;;5068315;28;20425;-82
2022/08/16 04:47:17;;;;;;;10.40;9.40;;;19.00;99.90;;;;;;5065284;28;20444;-81
2022/08/16 04:49:45;;;;;;;12.10;8.73;;;19.00;99.90;;;;;;5066871;28;20448;-81
2022/08/16 04:52:12;;;;;;;9.80;8.27;;;19.20;99.90;;;;;;5063916;28;20995;-81
2022/08/16 04:54:39;;;;;;;11.40;7.80;;;19.20;99.90;;;;;;5064983;28;20889;-82
2022/08/16 04:57:06;;;;;;;12.90;8.60;;;19.40;99.90;;;;;;5064353;28;20498;-82
2022/08/16 04:59:33;;;;;;;10.30;8.10;;;19.70;99.90;;;;;;5069275;28;20461;-81
2022/08/16 05:01:59;;;;;;;11.40;8.30;;;19.90;99.90;;;;;;5067403;28;20436;-80
2022/08/16 05:04:26;;;;;;;12.00;8.50;;;20.20;99.90;;;;;;5070535;28;20447;-81
2022/08/16 05:06:54;;;;;;;9.20;8.30;;;20.50;99.90;;;;;;5066861;28;20437;-82
2022/08/16 05:09:21;;;;;;;12.73;8.47;;;20.60;99.90;;;;;;5065626;28;20437;-81
2022/08/16 05:11:47;;;;;;;9.30;8.33;;;20.60;99.90;;;;;;5066876;28;20430;-82
2022/08/16 05:14:14;;;;;;;8.20;7.30;;;20.50;99.90;;;;;;5069809;28;20473;-81
2022/08/16 05:16:41;;;;;;;8.53;7.57;;;20.40;99.90;;;;;;5065033;28;20437;-81
2022/08/16 05:19:08;;;;;;;8.27;7.40;;;20.40;99.90;;;;;;5064107;28;20433;-81
2022/08/16 05:21:37;;;;;;;8.53;7.67;;;20.30;99.90;;;;;;5066258;28;20441;-82
2022/08/16 05:24:06;;;;;;;7.90;7.20;;;20.30;99.90;;;;;;5062960;28;20457;-82
2022/08/16 05:26:34;;;;;;;13.70;7.50;;;20.30;99.90;;;;;;5063431;28;20491;-81
2022/08/16 05:29:03;;;;;;;10.33;7.03;;;20.30;99.90;;;;;;5063011;28;21035;-82
2022/08/16 05:31:30;;;;;;;10.87;9.53;;;20.30;99.90;;;;;;5065288;28;20448;-80
2022/08/16 05:33:57;;;;;;;8.73;7.63;;;20.30;99.90;;;;;;5074019;28;20469;-81
2022/08/16 05:36:24;;;;;;;8.90;7.90;;;20.30;99.90;;;;;;5063790;28;20448;-82
2022/08/16 05:38:51;;;;;;;9.17;7.90;;;20.40;99.90;;;;;;5064644;28;20433;-81
2022/08/16 05:41:19;;;;;;;9.27;8.10;;;20.40;99.90;;;;;;5063211;28;20487;-82
2022/08/16 05:43:46;;;;;;;9.57;7.40;;;20.30;99.90;;;;;;5063514;28;20424;-81
2022/08/16 05:46:16;;;;;;;7.67;6.57;;;20.30;99.90;;;;;;5072225;28;20444;-82
2022/08/16 05:48:43;;;;;;;8.23;6.60;;;20.30;99.90;;;;;;5049023;28;20430;-81
2022/08/16 05:51:10;;;;;;;8.80;8.00;;;20.40;99.90;;;;;;5053235;28;20460;-82
2022/08/16 05:53:37;;;;;;;7.93;7.13;;;20.50;99.90;;;;;;5054881;28;20480;-80
2022/08/16 05:56:04;;;;;;;8.47;6.67;;;20.60;99.90;;;;;;5057130;28;20433;-81
2022/08/16 05:58:32;;;;;;;7.40;6.33;;;20.60;99.90;;;;;;5060578;28;20507;-81
2022/08/16 06:00:59;;;;;;;8.90;8.10;;;20.70;99.90;;;;;;5071654;28;20487;-80
2022/08/16 06:03:25;;;;;;;7.83;6.90;;;20.70;99.90;;;;;;5070479;28;20437;-80
2022/08/16 06:05:52;;;;;;;9.10;6.67;;;20.80;99.90;;;;;;5070594;28;20432;-82
2022/08/16 06:08:19;;;;;;;8.20;6.90;;;20.80;99.90;;;;;;5058744;28;20445;-82
2022/08/16 06:10:46;;;;;;;9.87;8.30;;;20.90;99.90;;;;;;5053014;28;20992;-84
2022/08/16 06:13:13;;;;;;;12.30;7.30;;;20.90;99.90;;;;;;5064133;28;20438;-80
2022/08/16 06:15:41;;;;;;;11.47;7.77;;;20.90;99.90;;;;;;5069393;28;20429;-80
2022/08/16 06:18:07;;;;;;;11.40;8.00;;;20.90;99.90;;;;;;5054712;28;20440;-82
2022/08/16 06:20:34;;;;;;;13.43;7.60;;;21.00;99.90;;;;;;5055232;28;20461;-82
2022/08/16 06:23:01;;;;;;;9.03;8.13;;;21.00;99.90;;;;;;5053829;28;20440;-81
2022/08/16 06:25:28;;;;;;;9.17;7.03;;;21.10;99.90;;;;;;5058022;28;20440;-83
2022/08/16 06:27:55;;;;;;;10.03;7.57;;;21.10;99.90;;;;;;5053393;28;20461;-83
2022/08/16 06:30:22;;;;;;;8.47;6.97;;;21.20;99.90;;;;;;5061018;28;20482;-81
2022/08/16 06:32:50;;;;;;;7.63;6.93;;;21.30;99.90;;;;;;5044445;28;20468;-82
2022/08/16 06:35:17;;;;;;;9.90;7.10;;;21.40;99.90;;;;;;5041219;28;20478;-81
2022/08/16 06:37:44;;;;;;;8.80;6.73;;;21.80;99.90;;;;;;5052164;28;20469;-81
2022/08/16 06:40:11;;;;;;;11.13;7.70;;;22.50;99.90;;;;;;5040374;28;20457;-81
2022/08/16 06:42:38;;;;;;;8.43;7.53;;;22.60;99.90;;;;;;5039096;28;21070;-82
2022/08/16 06:45:06;;;;;;;12.00;8.03;;;22.60;99.90;;;;;;5038787;28;20434;-82
2022/08/16 06:47:33;;;;;;;8.83;7.30;;;22.60;99.90;;;;;;5038800;28;20447;-82
2022/08/16 06:50:01;;;;;;;10.93;8.07;;;22.60;99.60;;;;;;5039263;28;20531;-82
2022/08/16 06:52:33;;;;;;;7.83;6.87;;;23.00;99.10;;;;;;5038643;28;20434;-82
2022/08/16 06:55:00;;;;;;;7.50;6.80;;;24.00;97.60;;;;;;5056057;28;20495;-81
2022/08/16 06:57:27;;;;;;;9.50;7.50;;;25.10;95.10;;;;;;5057266;28;20475;-83
2022/08/16 06:59:53;;;;;;;7.17;6.47;;;25.90;92.20;;;;;;5056122;28;20461;-83
2022/08/16 07:02:20;;;;;;;8.43;7.43;;;26.60;89.40;;;;;;5055856;28;20438;-82
2022/08/16 07:04:47;;;;;;;8.03;7.33;;;27.00;84.80;;;;;;5054698;28;20463;-81
2022/08/16 07:07:15;;;;;;;7.43;6.43;;;27.60;82.10;;;;;;5057834;28;20445;-81
2022/08/16 07:09:41;;;;;;;7.17;6.57;;;28.20;78.60;;;;;;5055651;28;20471;-81
2022/08/16 07:12:09;;;;;;;10.10;6.13;;;28.90;74.50;;;;;;5056722;28;20495;-83
2022/08/16 07:14:35;;;;;;;12.63;6.53;;;29.80;70.40;;;;;;5056905;28;20483;-83
2022/08/16 07:17:02;;;;;;;9.47;6.63;;;30.00;67.00;;;;;;5054590;28;20437;-82
2022/08/16 07:19:31;;;;;;;6.73;6.13;;;30.00;65.40;;;;;;5057723;28;20465;-82
2022/08/16 07:22:01;;;;;;;8.87;5.70;;;30.20;63.90;;;;;;5055691;28;20478;-82
2022/08/16 07:24:29;;;;;;;8.53;6.47;;;30.80;62.20;;;;;;5070758;28;20424;-82
2022/08/16 07:26:56;;;;;;;7.00;6.30;;;31.30;60.00;;;;;;5072193;28;20417;-82
2022/08/16 07:29:22;;;;;;;7.70;5.67;;;31.50;59.20;;;;;;5056212;28;20461;-83
2022/08/16 07:31:49;;;;;;;9.03;6.40;;;31.80;58.30;;;;;;5061845;28;20441;-82
2022/08/16 07:34:17;;;;;;;7.03;6.03;;;32.10;56.90;;;;;;5060811;28;20492;-81
2022/08/16 07:36:44;;;;;;;7.00;5.73;;;32.20;56.30;;;;;;5072133;28;20420;-81
2022/08/16 07:39:11;;;;;;;8.97;5.80;;;32.10;56.10;;;;;;5067720;28;20521;-81
2022/08/16 07:41:39;;;;;;;7.53;5.77;;;32.20;55.70;;;;;;5068029;28;20510;-82
2022/08/16 07:44:05;;;;;;;7.27;6.20;;;32.40;55.70;;;;;;5061543;28;20452;-83
2022/08/16 07:46:32;;;;;;;7.83;6.00;;;32.50;54.90;;;;;;5062813;28;20499;-82
2022/08/16 07:48:59;;;;;;;6.17;5.60;;;32.50;55.10;;;;;;5061489;28;20437;-82
2022/08/16 07:51:26;;;;;;;8.23;5.70;;;33.10;54.00;;;;;;5058029;28;20523;-83
2022/08/16 07:53:53;;;;;;;15.03;6.17;;;33.60;52.50;;;;;;5057275;28;20441;-83
2022/08/16 07:56:20;;;;;;;7.67;6.87;;;32.90;52.80;;;;;;5057208;28;20450;-83
2022/08/16 07:58:48;;;;;;;6.00;5.40;;;32.90;53.00;;;;;;5057821;28;20454;-82
2022/08/16 08:01:14;;;;;;;7.10;5.77;;;33.20;52.80;;;;;;5046210;28;20459;-81
2022/08/16 08:03:43;;;;;;;6.67;5.47;;;33.00;52.40;;;;;;5042799;28;20871;-82
2022/08/16 08:06:29;;;;;;;5.93;5.43;;;33.20;51.70;;;;;;5041122;28;20469;-88
2022/08/16 08:08:56;;;;;;;6.07;5.47;;;33.40;52.20;;;;;;5047743;28;20421;-91
2022/08/16 08:11:24;;;;;;;6.70;5.80;;;34.10;50.80;;;;;;5062554;28;20462;-91
2022/08/16 08:14:04;;;;;;;5.97;5.40;;;34.60;49.70;;;;;;5045455;28;20578;-90
2022/08/16 08:16:31;;;;;;;7.37;6.20;;;35.30;48.50;;;;;;5041749;28;20454;-91
2022/08/16 08:18:59;;;;;;;5.93;5.33;;;35.70;46.90;;;;;;5045526;28;20466;-90
2022/08/16 08:21:26;;;;;;;5.77;5.27;;;35.90;46.80;;;;;;5051630;28;21183;-90
2022/08/16 08:23:53;;;;;;;5.73;5.20;;;35.80;46.00;;;;;;5050436;28;20474;-90
2022/08/16 08:26:20;;;;;;;5.60;4.90;;;36.80;44.70;;;;;;5048627;28;20463;-90
2022/08/16 08:28:47;;;;;;;7.13;5.63;;;36.30;44.90;;;;;;5049938;28;20503;-91
2022/08/16 08:31:15;;;;;;;6.80;5.47;;;35.70;44.80;;;;;;5069340;22;20495;-86
2022/08/16 08:33:42;;;;;;;6.73;6.10;;;34.20;47.60;;;;;;5065979;28;20508;-86
2022/08/16 08:36:14;;;;;;;9.67;6.00;;;33.30;48.80;;;;;;5057066;28;20475;-87
2022/08/16 08:38:43;;;;;;;7.73;5.93;;;32.10;50.70;;;;;;5057643;28;20540;-86
2022/08/16 08:41:10;;;;;;;10.13;6.30;;;31.30;52.40;;;;;;5054993;28;20492;-87
2022/08/16 08:43:37;;;;;;;7.80;6.10;;;30.50;53.70;;;;;;5057535;28;20449;-87
2022/08/16 08:46:04;;;;;;;7.83;6.80;;;29.50;55.70;;;;;;5057568;28;20498;-82
2022/08/16 08:48:32;;;;;;;8.23;6.90;;;29.00;57.30;;;;;;5063164;28;20420;-86
2022/08/16 08:51:02;;;;;;;7.80;7.00;;;28.90;57.80;;;;;;5080511;28;20472;-82
2022/08/16 08:53:29;;;;;;;9.10;6.07;;;29.30;57.50;;;;;;5078189;28;20422;-83
2022/08/16 08:55:55;;;;;;;8.43;7.33;;;29.60;56.90;;;;;;5079629;28;20528;-84
2022/08/16 08:58:22;;;;;;;7.00;5.97;;;29.50;56.40;;;;;;5078453;28;20504;-85
2022/08/16 09:00:49;;;;;;;9.33;6.40;;;29.10;57.40;;;;;;5080060;28;20453;-89
2022/08/16 09:03:15;;;;;;;7.90;7.20;;;28.80;58.30;;;;;;5079882;28;20444;-88
2022/08/16 09:05:44;;;;;;;9.40;6.97;;;28.10;58.80;;;;;;5078953;28;20428;-88
2022/08/16 09:08:11;;;;;;;6.30;5.83;;;27.90;59.90;;;;;;5079059;28;20443;-90
2022/08/16 09:10:40;;;;;;;8.37;7.57;;;27.60;61.70;;;;;;5079217;28;20453;-89
2022/08/16 09:13:07;;;;;;;8.37;7.57;;;27.20;62.60;;;;;;5077273;28;20438;-89
2022/08/16 09:15:34;;;;;;;8.70;6.67;;;26.70;64.60;;;;;;5075620;28;20883;-83
2022/08/16 09:18:06;;;;;;;7.97;7.20;;;26.40;66.40;;;;;;5078400;28;20424;-88
2022/08/16 09:37:16;;;;;;;7.40;6.30;;;34.90;45.70;;;;;;4962992;28;20958;-91
2022/08/16 09:39:47;;;;;;;7.83;6.00;;;33.60;47.10;;;;;;5058908;28;20544;-91
2022/08/16 09:42:33;;;;;;;6.53;5.87;;;32.40;49.40;;;;;;5058094;28;20512;-91
2022/08/16 09:45:06;;;;;;;6.73;6.23;;;32.50;50.30;;;;;;5056960;28;20438;-88
2022/08/16 09:47:37;;;;;;;6.60;5.87;;;34.20;48.40;;;;;;5054755;28;20448;-89
2022/08/16 09:50:04;;;;;;;6.23;5.77;;;36.10;45.70;;;;;;5053952;28;20554;-88
2022/08/16 09:52:30;;;;;;;5.70;5.20;;;37.60;42.60;;;;;;5054200;28;20456;-87
2022/08/16 09:54:57;;;;;;;7.27;6.57;;;38.90;40.60;;;;;;5053711;28;21242;-89
2022/08/16 09:57:26;;;;;;;6.20;5.70;;;37.60;40.90;;;;;;5064522;28;20439;-89
2022/08/16 09:59:52;;;;;;;6.57;6.10;;;36.50;42.40;;;;;;5078244;28;20456;-89
2022/08/16 10:02:19;;;;;;;6.87;6.27;;;35.20;43.60;;;;;;5071215;28;20512;-89
2022/08/16 10:04:46;;;;;;;6.83;6.23;;;33.60;46.10;;;;;;5059612;28;20436;-88
2022/08/16 10:07:13;;;;;;;7.33;6.37;;;32.50;48.10;;;;;;5055153;28;20478;-88
2022/08/16 10:09:41;;;;;;;6.43;5.80;;;31.50;50.00;;;;;;5053068;28;20443;-88
2022/08/16 10:14:54;;;;;;;7.23;6.63;;;30.70;51.50;;;;;;5055246;28;20546;-87
2022/08/16 10:17:21;;;;;;;6.90;6.40;;;30.40;52.40;;;;;;5055371;28;20443;-87
2022/08/16 10:19:50;;;;;;;7.13;6.50;;;30.10;52.20;;;;;;5054174;28;20483;-87
2022/08/16 10:22:17;;;;;;;7.30;6.70;;;29.80;52.60;;;;;;5061894;28;20996;-87
2022/08/16 10:24:43;;;;;;;6.93;6.33;;;29.50;53.50;;;;;;5064470;28;20537;-88
2022/08/16 10:27:10;;;;;;;6.90;6.20;;;29.10;54.30;;;;;;5067115;28;20442;-87
2022/08/16 10:29:37;;;;;;;6.90;6.20;;;28.90;55.20;;;;;;5059893;28;20445;-86
2022/08/16 10:32:06;;;;;;;6.80;6.20;;;29.00;55.30;;;;;;5056967;28;20830;-87
2022/08/16 10:34:32;;;;;;;7.30;6.60;;;28.80;55.20;;;;;;5055082;28;20463;-87
2022/08/16 10:37:00;;;;;;;8.70;5.83;;;28.80;55.30;;;;;;5054569;28;20450;-87
2022/08/16 10:39:27;;;;;;;7.30;6.57;;;28.70;55.50;;;;;;5054737;28;21000;-86
2022/08/16 10:41:54;;;;;;;7.10;6.40;;;29.00;55.00;;;;;;5066040;28;20436;-89
2022/08/16 10:44:21;;;;;;;6.70;5.80;;;28.80;54.60;;;;;;5072343;28;20441;-86
2022/08/16 10:46:48;;;;;;;8.43;6.30;;;29.10;54.70;;;;;;5059504;28;20919;-87
2022/08/16 10:49:16;;;;;;;6.47;5.80;;;29.50;54.20;;;;;;5054416;28;20485;-86
2022/08/16 10:51:43;;;;;;;6.03;5.43;;;30.00;53.10;;;;;;5053425;28;20844;-86
2022/08/16 10:54:10;;;;;;;7.17;6.57;;;30.70;51.50;;;;;;5053764;28;20451;-84
2022/08/16 10:56:37;;;;;;;6.37;5.87;;;30.40;51.50;;;;;;5053316;28;20481;-86
2022/08/16 10:59:04;;;;;;;6.53;6.03;;;31.90;50.10;;;;;;5052693;28;20436;-88
2022/08/16 11:01:32;;;;;;;6.33;5.80;;;32.60;48.40;;;;;;5052073;28;20462;-86
2022/08/16 11:04:00;;;;;;;7.57;6.50;;;32.90;47.30;;;;;;5052655;28;20449;-86
2022/08/16 11:06:29;;;;;;;6.03;5.53;;;33.00;46.70;;;;;;5055417;28;20441;-86
2022/08/16 11:08:57;;;;;;;6.80;6.30;;;32.80;46.50;;;;;;5052884;28;20443;-88
2022/08/16 11:11:25;;;;;;;6.93;6.43;;;32.00;47.70;;;;;;5052465;28;20460;-84
2022/08/16 11:13:52;;;;;;;6.43;5.83;;;31.60;49.90;;;;;;5053712;28;20517;-85
2022/08/16 11:16:19;;;;;;;7.77;6.77;;;33.30;47.00;;;;;;5054097;28;20477;-85
2022/08/16 11:18:46;;;;;;;7.47;6.87;;;34.80;44.90;;;;;;5056013;28;20947;-85
2022/08/16 11:21:13;;;;;;;6.80;6.30;;;36.90;42.10;;;;;;5057106;28;20459;-84
2022/08/16 11:23:42;;;;;;;6.30;5.80;;;39.20;39.00;;;;;;5055598;28;20870;-86
2022/08/16 11:26:08;;;;;;;6.77;5.53;;;40.90;35.70;;;;;;5055422;28;20506;-86
2022/08/16 11:28:36;;;;;;;6.60;6.10;;;41.50;33.80;;;;;;5054126;28;20497;-86
2022/08/16 11:31:04;;;;;;;6.23;5.73;;;40.50;34.00;;;;;;5053329;28;20467;-86
2022/08/16 11:33:30;;;;;;;5.97;5.20;;;40.40;33.50;;;;;;5060996;28;20433;-86
2022/08/16 11:35:58;;;;;;;6.13;5.63;;;41.10;32.90;;;;;;5077693;28;20472;-83
2022/08/16 11:38:24;;;;;;;6.63;6.10;;;40.80;33.00;;;;;;5073443;28;20449;-86
2022/08/16 11:40:56;;;;;;;11.97;6.60;;;39.40;34.40;;;;;;5058678;28;20510;-86
2022/08/16 11:43:24;;;;;;;5.73;5.33;;;38.80;35.20;;;;;;5055797;28;20461;-85
2022/08/16 11:45:51;;;;;;;6.57;5.70;;;39.00;35.30;;;;;;5054318;28;20467;-84
2022/08/16 11:48:19;;;;;;;5.93;5.50;;;38.40;35.40;;;;;;5053963;28;20448;-85
2022/08/16 11:50:46;;;;;;;6.03;5.53;;;37.40;36.40;;;;;;5054328;28;20504;-85
2022/08/16 11:53:13;;;;;;;6.43;5.00;;;37.80;36.60;;;;;;5059071;28;20452;-85
2022/08/16 11:55:41;;;;;;;6.40;4.90;;;38.50;35.60;;;;;;5058725;28;20517;-85
2022/08/16 11:58:09;;;;;;;5.67;5.20;;;39.00;35.60;;;;;;5058407;28;20458;-85
2022/08/16 12:00:39;;;;;;;5.73;5.33;;;40.10;33.30;;;;;;5061477;28;20468;-85
2022/08/16 12:03:05;;;;;;;8.30;5.17;;;39.50;33.70;;;;;;5067337;28;20444;-84
2022/08/16 12:05:34;;;;;;;6.57;5.70;;;40.80;32.80;;;;;;5064772;28;20446;-85
2022/08/16 12:08:01;;;;;;;5.30;4.80;;;42.30;31.10;;;;;;5059967;28;20457;-85
2022/08/16 12:10:28;;;;;;;4.90;4.50;;;42.20;29.50;;;;;;5058079;28;20507;-84
2022/08/16 12:12:55;;;;;;;5.50;4.90;;;40.60;31.50;;;;;;5057967;28;20838;-85
2022/08/16 12:15:25;;;;;;;5.83;5.33;;;40.40;32.00;;;;;;5059286;28;20484;-84
2022/08/16 12:17:52;;;;;;;5.30;4.83;;;41.40;31.20;;;;;;5074543;28;20448;-84
2022/08/16 12:20:25;;;;;;;4.93;4.43;;;42.90;30.00;;;;;;5079226;28;20449;-84
2022/08/16 12:22:53;;;;;;;5.30;4.90;;;41.80;28.60;;;;;;5074803;28;20445;-86
2022/08/16 12:25:22;;;;;;;5.60;4.00;;;40.90;30.90;;;;;;5068572;28;20451;-86
2022/08/16 12:28:07;;;;;;;8.37;4.80;;;41.40;30.20;;;;;;5070507;28;20433;-86
2022/08/16 12:30:38;;;;;;;6.00;5.13;;;42.00;29.90;;;;;;5080077;28;20472;-87
2022/08/16 12:33:18;;;;;;;5.57;4.70;;;42.70;29.00;;;;;;5080202;28;20484;-84
2022/08/16 12:35:46;;;;;;;4.80;4.33;;;43.40;28.50;;;;;;5079119;28;20476;-85
2022/08/16 12:38:14;;;;;;;4.40;4.00;;;44.30;27.60;;;;;;5064972;28;20479;-86
2022/08/16 12:40:45;;;;;;;5.60;5.00;;;45.00;27.20;;;;;;5061087;28;20465;-84
2022/08/16 12:43:13;;;;;;;4.90;4.50;;;44.70;26.80;;;;;;5062001;28;20437;-85
2022/08/16 12:45:45;;;;;;;5.30;4.80;;;43.90;27.00;;;;;;5063408;28;20445;-84
2022/08/16 12:50:58;;;;;;;7.37;5.17;;;43.60;27.30;;;;;;5079294;28;20444;-85
2022/08/16 12:53:25;;;;;;;5.00;4.60;;;40.90;29.00;;;;;;5060909;28;20818;-85
2022/08/16 12:55:52;;;;;;;5.30;4.90;;;40.10;29.80;;;;;;5072590;28;20498;-87
2022/08/16 12:58:19;;;;;;;5.50;4.63;;;40.10;30.60;;;;;;5068342;28;20448;-86
2022/08/16 13:00:48;;;;;;;5.23;4.83;;;39.70;30.90;;;;;;5061471;28;20456;-86
2022/08/16 13:03:15;;;;;;;5.60;5.10;;;40.60;31.10;;;;;;5056800;28;20480;-86
2022/08/16 13:05:42;;;;;;;5.60;5.10;;;40.60;30.20;;;;;;5057658;28;20456;-85
2022/08/16 13:08:12;;;;;;;6.93;4.63;;;39.00;30.80;;;;;;5057263;28;20450;-85
2022/08/16 13:10:38;;;;;;;4.73;4.33;;;38.80;32.00;;;;;;5055884;28;20471;-86